createdAt,value
2022-10-08T08:50:48.912Z,100.00
2022-10-08T08:55:54.971Z,100.00
2022-10-08T09:01:03.721Z,100.00
2022-10-08T09:06:14.373Z,98.06
2022-10-08T09:11:20.091Z,95.25
2022-10-08T09:16:27.773Z,97.62
2022-10-08T09:21:35.293Z,97.83
2022-10-08T09:26:41.910Z,97.47
2022-10-08T09:31:47.828Z,98.43
2022-10-08T09:36:53.664Z,96.37
2022-10-08T09:42:12.364Z,100.00
2022-10-08T09:47:16.627Z,99.71
2022-10-08T09:52:22.828Z,100.00
2022-10-08T09:57:26.141Z,100.00
2022-10-08T10:02:33.173Z,100.00
2022-10-08T10:07:39.745Z,100.00
2022-10-08T10:12:49.993Z,100.00
2022-10-08T10:17:56.154Z,98.76
2022-10-08T10:23:08.900Z,98.04
2022-10-08T10:28:19.584Z,99.84
2022-10-08T10:33:26.884Z,99.86
2022-10-08T10:38:38.511Z,99.37
2022-10-08T10:43:49.486Z,100.00
2022-10-08T10:48:55.834Z,99.09
2022-10-08T10:54:04.377Z,100.00
2022-10-08T10:59:15.232Z,100.00
2022-10-08T11:04:23.081Z,100.00
2022-10-08T11:09:33.326Z,100.00
2022-10-08T11:14:46.147Z,100.00
2022-10-08T11:19:57.470Z,100.00
2022-10-08T11:25:12.094Z,100.00
2022-10-08T11:30:20.846Z,100.00
2022-10-08T11:35:33.287Z,100.00
2022-10-08T11:40:44.691Z,100.00
2022-10-08T11:46:28.442Z,100.00
2022-10-08T11:51:33.789Z,100.00
2022-10-08T11:56:40.657Z,100.00
2022-10-08T12:01:54.143Z,100.00
2022-10-08T12:07:08.991Z,100.00
2022-10-08T12:12:15.059Z,100.00
2022-10-08T12:17:18.415Z,100.00
2022-10-08T12:22:40.986Z,99.75
2022-10-08T12:27:46.533Z,98.81
2022-10-08T12:32:54.963Z,96.84
2022-10-08T12:38:04.159Z,98.70
2022-10-08T12:43:16.863Z,100.00
2022-10-08T12:53:58.373Z,98.94
2022-10-08T12:59:05.029Z,97.56
2022-10-08T13:04:08.948Z,98.32
2022-10-08T13:09:26.088Z,100.00
2022-10-08T13:14:33.141Z,93.38
2022-10-08T13:19:37.515Z,88.29
2022-10-08T13:24:41.925Z,88.49
2022-10-08T13:29:47.543Z,89.91
2022-10-08T13:34:52.605Z,90.72
2022-10-08T13:39:56.788Z,92.89
2022-10-08T13:45:02.747Z,91.91
2022-10-08T13:50:07.017Z,91.77
2022-10-08T13:55:18.904Z,92.14
2022-10-08T14:00:23.789Z,92.17
2022-10-08T14:05:28.447Z,93.73
2022-10-08T14:10:32.576Z,94.94
2022-10-08T14:15:37.639Z,94.35
2022-10-08T14:20:41.067Z,99.51
2022-10-08T14:25:44.435Z,94.02
2022-10-08T14:30:49.152Z,94.29
2022-10-08T14:36:07.227Z,94.38
2022-10-08T14:41:13.202Z,100.00
2022-10-08T14:46:18.516Z,100.00
2022-10-08T14:51:24.883Z,100.00
2022-10-08T14:56:31.277Z,100.00
2022-10-08T15:01:50.587Z,100.00
2022-10-08T15:06:53.976Z,100.00
2022-10-08T15:11:57.742Z,97.21
2022-10-08T15:17:06.675Z,96.59
2022-10-08T15:22:13.000Z,97.07
2022-10-08T15:27:36.155Z,97.95
2022-10-08T15:38:58.370Z,100.00
2022-10-08T15:44:19.440Z,98.96
2022-10-08T15:54:46.535Z,99.47
2022-10-08T15:59:50.217Z,100.00
2022-10-08T16:04:56.508Z,100.00
2022-10-08T16:10:00.698Z,100.00
2022-10-08T16:15:04.618Z,100.00
2022-10-08T16:20:10.187Z,100.00
2022-10-08T16:25:13.443Z,100.00
2022-10-08T16:30:16.708Z,100.00
2022-10-08T16:35:26.299Z,100.00
2022-10-08T16:40:31.163Z,100.00
2022-10-08T16:45:36.321Z,100.00
2022-10-08T16:50:44.128Z,100.00
2022-10-08T16:55:47.450Z,100.00
2022-10-08T17:00:50.664Z,100.00
2022-10-08T17:05:55.297Z,100.00
2022-10-08T17:10:58.537Z,100.00
2022-10-08T17:16:07.371Z,100.00
2022-10-08T17:21:12.394Z,100.00
2022-10-08T17:26:17.260Z,100.00
2022-10-08T17:31:21.287Z,100.00
2022-10-08T17:36:27.193Z,100.00
2022-10-08T17:41:31.552Z,100.00
2022-10-08T17:46:36.276Z,100.00
2022-10-08T17:51:40.891Z,100.00
2022-10-08T17:56:44.135Z,100.00
2022-10-08T18:01:50.004Z,100.00
2022-10-08T18:06:59.777Z,100.00
2022-10-08T18:12:05.480Z,100.00
2022-10-08T18:17:08.881Z,100.00
2022-10-08T18:22:16.057Z,100.00
2022-10-08T18:27:21.918Z,100.00
2022-10-08T18:32:28.235Z,100.00
2022-10-08T18:37:35.056Z,100.00
2022-10-08T18:42:41.397Z,100.00
2022-10-08T18:47:44.808Z,100.00
2022-10-08T18:52:50.072Z,100.00
2022-10-08T18:57:55.908Z,100.00
2022-10-08T19:02:59.566Z,100.00
2022-10-08T19:08:04.458Z,100.00
2022-10-08T19:13:07.802Z,100.00
2022-10-08T19:18:13.421Z,100.00
2022-10-08T19:23:18.087Z,100.00
2022-10-08T19:28:21.594Z,100.00
2022-10-08T19:33:25.058Z,100.00
2022-10-08T19:38:30.622Z,100.00
2022-10-08T19:43:34.041Z,100.00
2022-10-08T19:48:39.660Z,100.00
2022-10-08T19:53:44.556Z,100.00
2022-10-08T19:58:49.774Z,100.00
2022-10-08T20:03:54.872Z,100.00
2022-10-08T20:09:00.976Z,100.00
2022-10-08T20:14:04.838Z,100.00
2022-10-08T20:19:09.099Z,100.00
2022-10-08T20:24:19.827Z,100.00
2022-10-08T20:29:27.420Z,100.00
2022-10-08T20:34:33.476Z,100.00
2022-10-08T20:39:41.890Z,100.00
2022-10-08T20:44:45.621Z,100.00
2022-10-08T20:49:48.958Z,100.00
2022-10-08T20:54:53.867Z,100.00
2022-10-08T20:59:57.576Z,100.00
2022-10-08T21:05:00.932Z,100.00
2022-10-08T21:10:06.190Z,100.00
2022-10-08T21:15:09.986Z,100.00
2022-10-08T21:20:13.190Z,100.00
2022-10-08T21:25:17.837Z,100.00
